Time;durP1;ratioP1;P1;durP2;ratioP2;P2;SDS_P1;SDS_P2;PMS_P1;PMS_P2;Temp;Humidity;BMP_temperature;BMP_pressure;BME280_temperature;BME280_humidity;BME280_pressure;Samples;Min_cycle;Max_cycle;Signal;HPM_P1;HPM_P2
2023/07/28 00:04:38;;;;;;;0.27;0.20;;;;;;;;;;10234457;28;20054;-92
2023/07/28 00:09:46;;;;;;;0.35;0.30;;;;;;;;;;10233993;28;20295;-92
2023/07/28 00:14:51;;;;;;;;;;;;;;;;;;10232118;28;20055;-92
2023/07/28 00:19:55;;;;;;;0.60;0.30;;;;;;;;;;10233305;29;19973;-92
2023/07/28 00:25:04;;;;;;;1.30;0.30;;;;;;;;;;10231541;28;20059;-92
2023/07/28 00:30:14;;;;;;;2.95;0.25;;;;;;;;;;10233109;28;20085;-94
2023/07/28 00:35:23;;;;;;;0.32;0.20;;;;;;;;;;10232956;28;20134;-92
2023/07/28 00:40:29;;;;;;;0.30;0.30;;;;;;;;;;10228507;29;20878;-92
2023/07/28 00:45:53;;;;;;;0.32;0.30;;;;;;;;;;10235666;29;20505;-93
2023/07/28 00:51:08;;;;;;;0.28;0.28;;;;;;;;;;10231433;29;20126;-92
2023/07/28 00:56:19;;;;;;;0.45;0.30;;;;;;;;;;10232899;29;20106;-92
2023/07/28 01:01:27;;;;;;;0.60;0.40;;;;;;;;;;10224021;29;20130;-94
2023/07/28 01:06:45;;;;;;;0.70;0.40;;;;;;;;;;10234029;29;20043;-93
2023/07/28 01:11:56;;;;;;;0.85;0.40;;;;;;;;;;10223406;29;20058;-95
2023/07/28 01:17:07;;;;;;;0.50;0.40;;;;;;;;;;10238063;29;20519;-93
2023/07/28 01:22:35;;;;;;;0.28;0.28;;;;;;;;;;10222618;28;20054;-92
2023/07/28 01:27:42;;;;;;;0.30;0.30;;;;;;;;;;10232625;29;20441;-92
2023/07/28 01:32:59;;;;;;;1.30;0.20;;;;;;;;;;10228908;28;20435;-96
2023/07/28 01:38:10;;;;;;;0.17;0.17;;;;;;;;;;10229888;29;20681;-93
2023/07/28 01:43:50;;;;;;;0.50;0.30;;;;;;;;;;10233391;28;20648;-93
2023/07/28 01:49:41;;;;;;;0.15;0.15;;;;;;;;;;10235655;29;20153;-92
2023/07/28 01:55:26;;;;;;;0.22;0.22;;;;;;;;;;10224317;28;20681;-93
2023/07/28 02:00:34;;;;;;;0.88;0.20;;;;;;;;;;10222188;29;20055;-94
2023/07/28 02:05:47;;;;;;;0.22;0.22;;;;;;;;;;10219599;29;20434;-93
2023/07/28 02:10:55;;;;;;;0.45;0.25;;;;;;;;;;10216213;28;20055;-92
2023/07/28 02:16:27;;;;;;;0.43;0.20;;;;;;;;;;10231850;29;20451;-93
2023/07/28 02:21:49;;;;;;;0.10;0.10;;;;;;;;;;10229932;29;20054;-92
2023/07/28 02:32:58;;;;;;;0.80;0.28;;;;;;;;;;10178087;28;20147;-93
2023/07/28 02:38:15;;;;;;;0.85;0.20;;;;;;;;;;10218818;29;20597;-93
2023/07/28 02:43:44;;;;;;;0.00;0.00;;;;;;;;;;10214552;28;20051;-94
2023/07/28 02:49:36;;;;;;;0.15;0.15;;;;;;;;;;10168206;29;20120;-92
2023/07/28 02:55:02;;;;;;;0.30;0.30;;;;;;;;;;10227057;28;20051;-95
2023/07/28 03:00:14;;;;;;;0.22;0.13;;;;;;;;;;10226431;29;20503;-96
2023/07/28 03:10:58;;;;;;;0.20;0.20;;;;;;;;;;10214970;29;20119;-93
2023/07/28 03:16:06;;;;;;;0.10;0.10;;;;;;;;;;10216409;29;20423;-95
2023/07/28 03:21:12;;;;;;;0.30;0.20;;;;;;;;;;10225501;29;20860;-93
2023/07/28 03:26:32;;;;;;;0.20;0.20;;;;;;;;;;10227275;29;20058;-93
2023/07/28 03:31:42;;;;;;;0.10;0.10;;;;;;;;;;10229125;29;20058;-93
2023/07/28 03:36:57;;;;;;;0.10;0.10;;;;;;;;;;10210053;29;20082;-93
2023/07/28 03:42:24;;;;;;;;;;;;;;;;;;10212615;29;20077;-95
2023/07/28 03:47:44;;;;;;;0.00;0.00;;;;;;;;;;10248992;28;19926;-93
2023/07/28 03:53:04;;;;;;;0.10;0.10;;;;;;;;;;10232680;28;20602;-94
2023/07/28 03:58:28;;;;;;;0.40;0.20;;;;;;;;;;10234502;29;20130;-93
2023/07/28 04:03:48;;;;;;;;;;;;;;;;;;;;;
2023/07/28 04:09:03;;;;;;;0.10;0.10;;;;;;;;;;10240639;28;20059;-94
2023/07/28 06:37:25;;;;;;;;;;;;;;;;;;10175792;29;20044;-82
2023/07/28 06:42:29;;;;;;;0.98;0.20;;;;;;;;;;10173601;29;20596;-82
2023/07/28 06:47:32;;;;;;;0.57;0.10;;;;;;;;;;10182655;29;20063;-82
2023/07/28 06:52:37;;;;;;;0.10;0.10;;;;;;;;;;10174994;29;20076;-83
2023/07/28 06:57:42;;;;;;;0.47;0.10;;;;;;;;;;10159196;29;20051;-82
2023/07/28 07:02:48;;;;;;;0.10;0.10;;;;;;;;;;10173404;29;20041;-82
2023/07/28 07:07:56;;;;;;;0.25;0.20;;;;;;;;;;10174072;29;20063;-83
2023/07/28 07:12:59;;;;;;;0.10;0.10;;;;;;;;;;10173346;29;20052;-82
2023/07/28 07:18:03;;;;;;;0.70;0.35;;;;;;;;;;10190826;29;20052;-81
2023/07/28 07:23:15;;;;;;;0.38;0.20;;;;;;;;;;10181552;29;20040;-82
2023/07/28 07:28:22;;;;;;;0.10;0.10;;;;;;;;;;10183120;29;20052;-83
2023/07/28 07:33:26;;;;;;;0.22;0.20;;;;;;;;;;10175689;29;20066;-83
2023/07/28 07:38:34;;;;;;;0.88;0.30;;;;;;;;;;10187589;29;20059;-83
2023/07/28 07:43:38;;;;;;;0.52;0.20;;;;;;;;;;10177212;29;20052;-84
2023/07/28 07:48:41;;;;;;;0.28;0.28;;;;;;;;;;10177939;29;20845;-82
2023/07/28 07:53:52;;;;;;;0.20;0.20;;;;;;;;;;10162289;29;20061;-83
2023/07/28 07:58:56;;;;;;;0.40;0.20;;;;;;;;;;10179942;29;20492;-83
2023/07/28 08:03:59;;;;;;;0.52;0.40;;;;;;;;;;10179484;29;20053;-83
2023/07/28 08:09:06;;;;;;;0.43;0.25;;;;;;;;;;10176694;29;20519;-82
2023/07/28 08:14:09;;;;;;;0.30;0.28;;;;;;;;;;10163712;29;20471;-83
2023/07/28 08:19:12;;;;;;;0.40;0.30;;;;;;;;;;10160159;29;20116;-82
2023/07/28 08:24:17;;;;;;;1.30;0.60;;;;;;;;;;10160707;29;20159;-83
2023/07/28 08:29:20;;;;;;;0.20;0.20;;;;;;;;;;10162220;29;20131;-82
2023/07/28 08:34:27;;;;;;;1.30;0.20;;;;;;;;;;10160947;29;20129;-82
2023/07/28 08:39:31;;;;;;;0.68;0.20;;;;;;;;;;10163077;29;20156;-83
2023/07/28 08:44:37;;;;;;;0.15;0.15;;;;;;;;;;10166310;29;20132;-83
2023/07/28 08:49:41;;;;;;;0.30;0.17;;;;;;;;;;10167934;29;20071;-83
2023/07/28 08:54:46;;;;;;;0.30;0.20;;;;;;;;;;10160003;29;20147;-83
2023/07/28 08:59:50;;;;;;;0.20;0.20;;;;;;;;;;10165462;29;20127;-83
2023/07/28 09:04:58;;;;;;;0.73;0.30;;;;;;;;;;10162426;29;20131;-83
2023/07/28 09:10:11;;;;;;;0.35;0.35;;;;;;;;;;10154647;29;20539;-84
2023/07/28 09:15:16;;;;;;;0.30;0.30;;;;;;;;;;10168484;29;20063;-84
2023/07/28 09:20:22;;;;;;;0.20;0.20;;;;;;;;;;10154393;29;20103;-83
2023/07/28 09:25:34;;;;;;;0.30;0.30;;;;;;;;;;10165478;29;20039;-83
2023/07/28 09:30:49;;;;;;;0.20;0.20;;;;;;;;;;10164654;29;20075;-82
2023/07/28 09:35:52;;;;;;;2.90;0.67;;;;;;;;;;10158215;29;20939;-83
2023/07/28 09:40:58;;;;;;;0.43;0.40;;;;;;;;;;10159555;29;20108;-83
2023/07/28 09:46:06;;;;;;;0.20;0.20;;;;;;;;;;10153129;29;20056;-82
2023/07/28 09:51:15;;;;;;;0.60;0.50;;;;;;;;;;10163118;29;20056;-83
2023/07/28 09:56:23;;;;;;;0.65;0.50;;;;;;;;;;10161332;29;20072;-83
2023/07/28 10:01:30;;;;;;;0.47;0.47;;;;;;;;;;10159701;29;20099;-84
2023/07/28 10:06:34;;;;;;;0.40;0.30;;;;;;;;;;10160696;29;20080;-83
2023/07/28 10:11:41;;;;;;;0.60;0.43;;;;;;;;;;10157128;29;20063;-83
2023/07/28 10:16:44;;;;;;;0.38;0.25;;;;;;;;;;10157796;29;20058;-83
2023/07/28 10:21:48;;;;;;;1.10;0.38;;;;;;;;;;10160305;29;20072;-83
2023/07/28 10:26:59;;;;;;;0.47;0.47;;;;;;;;;;10161857;29;20485;-82
2023/07/28 10:32:03;;;;;;;0.63;0.50;;;;;;;;;;10156951;29;20063;-82
2023/07/28 10:37:16;;;;;;;0.40;0.40;;;;;;;;;;10163273;29;20047;-82
2023/07/28 10:42:20;;;;;;;0.30;0.30;;;;;;;;;;10158908;29;20075;-83
2023/07/28 10:47:25;;;;;;;0.82;0.50;;;;;;;;;;10156255;29;20103;-82
2023/07/28 10:52:28;;;;;;;0.50;0.45;;;;;;;;;;10156745;29;20052;-82
2023/07/28 10:57:33;;;;;;;0.47;0.45;;;;;;;;;;10167535;29;20055;-83
2023/07/28 11:02:42;;;;;;;0.50;0.50;;;;;;;;;;10167965;29;20131;-83
2023/07/28 11:07:46;;;;;;;0.70;0.70;;;;;;;;;;10166240;29;20111;-83
2023/07/28 11:12:52;;;;;;;0.50;0.40;;;;;;;;;;10167474;29;20071;-83
2023/07/28 11:17:57;;;;;;;0.63;0.63;;;;;;;;;;10171911;29;20158;-85
2023/07/28 11:23:05;;;;;;;0.50;0.50;;;;;;;;;;10155922;29;20080;-83
2023/07/28 11:28:10;;;;;;;0.40;0.40;;;;;;;;;;10165360;29;20048;-81
2023/07/28 11:33:14;;;;;;;0.40;0.40;;;;;;;;;;10165152;29;20583;-82
2023/07/28 11:38:17;;;;;;;0.60;0.52;;;;;;;;;;10173552;29;20079;-83
2023/07/28 11:43:26;;;;;;;0.65;0.60;;;;;;;;;;10173380;29;20068;-82
2023/07/28 11:48:32;;;;;;;0.50;0.50;;;;;;;;;;10164080;29;20048;-82
2023/07/28 11:53:37;;;;;;;0.70;0.70;;;;;;;;;;10172459;29;20095;-83
2023/07/28 11:58:42;;;;;;;0.57;0.57;;;;;;;;;;10177064;29;20095;-82
2023/07/28 12:03:46;;;;;;;0.80;0.80;;;;;;;;;;10174614;29;20100;-82
2023/07/28 12:08:50;;;;;;;0.63;0.63;;;;;;;;;;10176460;29;20060;-82
2023/07/28 12:13:54;;;;;;;1.42;0.90;;;;;;;;;;10162810;29;20202;-82
2023/07/28 12:19:01;;;;;;;1.50;1.20;;;;;;;;;;10178026;29;20056;-82
2023/07/28 12:24:07;;;;;;;0.90;0.90;;;;;;;;;;10180026;29;20048;-82
2023/07/28 12:29:12;;;;;;;0.80;0.80;;;;;;;;;;10176622;29;20397;-83
2023/07/28 12:34:18;;;;;;;0.75;0.75;;;;;;;;;;10181269;29;20559;-82
2023/07/28 12:39:24;;;;;;;1.00;0.88;;;;;;;;;;10177722;29;20044;-82
2023/07/28 12:44:32;;;;;;;0.70;0.65;;;;;;;;;;10173422;29;20044;-82
2023/07/28 12:49:38;;;;;;;1.00;1.00;;;;;;;;;;10168692;29;20044;-82
2023/07/28 12:54:43;;;;;;;0.80;0.70;;;;;;;;;;10177126;29;20048;-82
2023/07/28 12:59:48;;;;;;;0.80;0.80;;;;;;;;;;10176707;29;20087;-82
2023/07/28 13:04:54;;;;;;;0.70;0.70;;;;;;;;;;10176307;29;20048;-82
2023/07/28 13:09:57;;;;;;;0.90;0.63;;;;;;;;;;10178938;29;20067;-81
2023/07/28 13:15:02;;;;;;;0.90;0.80;;;;;;;;;;10176941;29;20072;-82
2023/07/28 13:20:07;;;;;;;0.82;0.80;;;;;;;;;;10174533;29;20754;-82
2023/07/28 13:25:10;;;;;;;0.70;0.63;;;;;;;;;;10175314;29;20080;-82
2023/07/28 13:30:15;;;;;;;0.65;0.63;;;;;;;;;;10162981;29;20056;-81
2023/07/28 13:35:18;;;;;;;0.95;0.70;;;;;;;;;;10177078;29;20127;-82
2023/07/28 13:40:22;;;;;;;0.98;0.80;;;;;;;;;;10167311;29;20083;-82
2023/07/28 13:45:27;;;;;;;0.60;0.60;;;;;;;;;;10160603;29;20052;-81
2023/07/28 13:50:30;;;;;;;1.23;0.60;;;;;;;;;;10151887;29;20079;-81
2023/07/28 13:55:36;;;;;;;1.17;0.50;;;;;;;;;;10168279;29;20048;-81
2023/07/28 14:00:44;;;;;;;0.88;0.70;;;;;;;;;;10162305;29;20076;-82
2023/07/28 14:05:48;;;;;;;0.88;0.45;;;;;;;;;;10162183;29;20099;-82
2023/07/28 14:10:52;;;;;;;0.68;0.55;;;;;;;;;;10159376;29;20056;-82
2023/07/28 14:15:57;;;;;;;0.88;0.40;;;;;;;;;;10159157;29;20213;-82
2023/07/28 14:21:00;;;;;;;0.30;0.30;;;;;;;;;;10160977;29;20512;-81
2023/07/28 14:26:04;;;;;;;0.30;0.30;;;;;;;;;;10161489;29;20104;-81
2023/07/28 14:31:08;;;;;;;0.98;0.50;;;;;;;;;;10168470;29;20424;-82
2023/07/28 14:36:12;;;;;;;0.98;0.60;;;;;;;;;;10170255;29;20058;-81
2023/07/28 14:41:16;;;;;;;0.35;0.35;;;;;;;;;;10172572;29;20059;-82
2023/07/28 14:46:22;;;;;;;0.30;0.30;;;;;;;;;;10165758;29;20657;-81
2023/07/28 14:51:26;;;;;;;0.40;0.38;;;;;;;;;;10172585;29;20096;-81
2023/07/28 14:56:29;;;;;;;0.73;0.20;;;;;;;;;;10161168;29;20056;-82
2023/07/28 15:01:34;;;;;;;2.60;0.30;;;;;;;;;;10173700;29;20059;-82
2023/07/28 15:06:37;;;;;;;0.37;0.37;;;;;;;;;;10169558;29;20769;-82
2023/07/28 15:11:41;;;;;;;0.52;0.20;;;;;;;;;;10174304;29;20079;-82
2023/07/28 15:16:45;;;;;;;0.20;0.20;;;;;;;;;;10167912;29;20492;-82
2023/07/28 15:21:49;;;;;;;0.20;0.20;;;;;;;;;;10180670;29;20048;-81
2023/07/28 15:26:52;;;;;;;0.68;0.20;;;;;;;;;;10168485;29;20472;-82
2023/07/28 15:31:57;;;;;;;0.13;0.10;;;;;;;;;;10173606;29;20083;-82
2023/07/28 15:37:03;;;;;;;0.40;0.28;;;;;;;;;;10177571;29;20083;-82
2023/07/28 15:42:07;;;;;;;0.17;0.17;;;;;;;;;;10180172;29;20048;-81
2023/07/28 15:47:11;;;;;;;0.20;0.20;;;;;;;;;;10148009;29;20055;-81
2023/07/28 15:52:15;;;;;;;0.20;0.15;;;;;;;;;;10179676;29;20083;-83
2023/07/28 15:57:18;;;;;;;0.28;0.25;;;;;;;;;;10166992;29;20056;-82
2023/07/28 16:02:23;;;;;;;0.40;0.32;;;;;;;;;;10178521;29;20620;-82
2023/07/28 16:07:27;;;;;;;0.30;0.30;;;;;;;;;;10165993;29;20203;-82
2023/07/28 16:12:30;;;;;;;0.52;0.40;;;;;;;;;;10174406;29;20044;-82
2023/07/28 16:17:35;;;;;;;0.20;0.20;;;;;;;;;;10175621;29;20048;-82
2023/07/28 16:22:42;;;;;;;0.30;0.30;;;;;;;;;;10146577;29;20427;-82
2023/07/28 16:28:17;;;;;;;;;;;;;;;;;;;;;
2023/07/28 16:33:44;;;;;;;0.20;0.20;;;;;;;;;;10167876;29;20056;-82
2023/07/28 16:38:48;;;;;;;0.30;0.30;;;;;;;;;;10177420;29;20107;-81
2023/07/28 16:43:51;;;;;;;0.30;0.30;;;;;;;;;;10180660;29;20044;-82
2023/07/28 16:48:56;;;;;;;0.17;0.10;;;;;;;;;;10166364;29;20071;-82
2023/07/28 16:53:59;;;;;;;0.35;0.30;;;;;;;;;;10171966;29;20072;-82
2023/07/28 16:59:03;;;;;;;0.50;0.50;;;;;;;;;;10170422;29;20044;-82
2023/07/28 17:04:12;;;;;;;0.82;0.60;;;;;;;;;;10165416;29;20040;-82
2023/07/28 17:09:15;;;;;;;0.40;0.40;;;;;;;;;;10167382;29;20075;-82
2023/07/28 17:14:19;;;;;;;1.25;0.43;;;;;;;;;;10174548;29;20051;-82
2023/07/28 17:19:23;;;;;;;0.57;0.45;;;;;;;;;;10177326;29;20047;-82
2023/07/28 17:24:27;;;;;;;0.40;0.40;;;;;;;;;;10159990;29;20056;-82
2023/07/28 17:29:30;;;;;;;0.88;0.70;;;;;;;;;;10159272;29;20048;-82
2023/07/28 17:34:35;;;;;;;0.40;0.40;;;;;;;;;;10157463;29;20680;-82
2023/07/28 17:39:38;;;;;;;0.30;0.30;;;;;;;;;;10167728;29;20044;-82
2023/07/28 17:44:43;;;;;;;0.40;0.40;;;;;;;;;;10171847;29;20068;-82
2023/07/28 17:49:48;;;;;;;0.60;0.55;;;;;;;;;;10169747;29;20107;-82
2023/07/28 17:54:51;;;;;;;0.77;0.63;;;;;;;;;;10165742;29;20052;-82
2023/07/28 17:59:54;;;;;;;0.30;0.30;;;;;;;;;;10166427;29;20068;-82
2023/07/28 18:04:59;;;;;;;0.55;0.40;;;;;;;;;;10155576;29;20326;-81
2023/07/28 18:10:03;;;;;;;0.57;0.30;;;;;;;;;;10162669;29;20127;-82
2023/07/28 18:15:07;;;;;;;0.28;0.28;;;;;;;;;;10143583;29;20052;-82
2023/07/28 18:20:12;;;;;;;1.05;0.30;;;;;;;;;;10157974;29;20040;-81
2023/07/28 18:25:16;;;;;;;1.17;0.30;;;;;;;;;;10159240;29;20556;-81
2023/07/28 18:30:19;;;;;;;0.43;0.43;;;;;;;;;;10138993;29;20285;-82
2023/07/28 18:35:24;;;;;;;0.85;0.30;;;;;;;;;;10158258;29;20080;-81
2023/07/28 18:40:30;;;;;;;0.65;0.20;;;;;;;;;;10143635;29;20131;-81
2023/07/28 18:45:34;;;;;;;0.20;0.20;;;;;;;;;;10153411;29;20139;-81
2023/07/28 18:50:41;;;;;;;;;;;;;;;;;;10148975;29;20062;-81
2023/07/28 18:55:46;;;;;;;0.28;0.20;;;;;;;;;;10160067;29;19959;-81
2023/07/28 19:00:52;;;;;;;0.50;0.30;;;;;;;;;;10144026;29;20045;-81
2023/07/28 19:05:56;;;;;;;0.17;0.17;;;;;;;;;;10160951;29;20099;-81
2023/07/28 19:11:00;;;;;;;0.20;0.10;;;;;;;;;;10163357;29;20055;-81
2023/07/28 19:16:04;;;;;;;0.10;0.10;;;;;;;;;;10159123;29;20071;-81
2023/07/28 19:21:10;;;;;;;0.10;0.10;;;;;;;;;;10171791;29;20056;-82
2023/07/28 19:26:16;;;;;;;0.20;0.20;;;;;;;;;;10173701;29;20461;-82
2023/07/28 19:31:20;;;;;;;0.40;0.20;;;;;;;;;;10170758;29;20656;-82
2023/07/28 19:36:25;;;;;;;0.30;0.10;;;;;;;;;;10169480;29;20092;-83
2023/07/28 19:41:31;;;;;;;1.08;0.10;;;;;;;;;;10167848;29;20056;-83
2023/07/28 19:46:35;;;;;;;0.10;0.10;;;;;;;;;;10158529;29;20069;-82
2023/07/28 19:51:41;;;;;;;0.00;0.00;;;;;;;;;;10157541;29;20046;-81
2023/07/28 19:56:51;;;;;;;0.10;0.10;;;;;;;;;;10156062;29;20052;-82
2023/07/28 20:01:54;;;;;;;0.20;0.10;;;;;;;;;;10164847;29;20044;-82
2023/07/28 20:07:02;;;;;;;0.08;0.08;;;;;;;;;;10164775;29;20048;-82
2023/07/28 20:12:07;;;;;;;0.20;0.20;;;;;;;;;;10169476;29;20088;-82
2023/07/28 20:17:12;;;;;;;0.13;0.10;;;;;;;;;;10163342;29;20079;-82
2023/07/28 20:22:19;;;;;;;;;;;;;;;;;;10167335;29;20144;-82
2023/07/28 20:27:27;;;;;;;0.10;0.00;;;;;;;;;;10155624;29;19923;-82
2023/07/28 20:32:33;;;;;;;0.10;0.10;;;;;;;;;;10160982;29;20056;-83
2023/07/28 20:37:41;;;;;;;0.57;0.13;;;;;;;;;;10183269;29;20052;-83
2023/07/28 20:42:51;;;;;;;0.10;0.10;;;;;;;;;;10166638;29;20491;-82
2023/07/28 20:47:54;;;;;;;0.30;0.10;;;;;;;;;;10168826;29;20309;-82
2023/07/28 20:53:04;;;;;;;0.20;0.20;;;;;;;;;;10164710;29;20072;-82
2023/07/28 20:58:10;;;;;;;0.20;0.20;;;;;;;;;;10167648;29;20052;-82
2023/07/28 21:03:16;;;;;;;;;;;;;;;;;;10164474;29;20559;-82
2023/07/28 21:08:23;;;;;;;0.35;0.10;;;;;;;;;;10157444;29;19923;-82
2023/07/28 21:13:28;;;;;;;0.52;0.20;;;;;;;;;;10164753;29;20044;-83
2023/07/28 21:18:31;;;;;;;0.30;0.20;;;;;;;;;;10176805;29;20056;-83
2023/07/28 21:23:40;;;;;;;2.33;0.20;;;;;;;;;;10159290;29;20044;-82
2023/07/28 21:28:46;;;;;;;0.20;0.20;;;;;;;;;;10159323;29;20689;-83
2023/07/28 21:33:50;;;;;;;0.20;0.13;;;;;;;;;;10161959;29;20052;-84
2023/07/28 21:38:55;;;;;;;0.45;0.30;;;;;;;;;;10158098;29;20134;-82
2023/07/28 21:44:01;;;;;;;0.28;0.20;;;;;;;;;;10168026;29;20063;-82
2023/07/28 21:49:06;;;;;;;0.63;0.20;;;;;;;;;;10170218;29;20632;-82
2023/07/28 21:54:13;;;;;;;0.20;0.20;;;;;;;;;;10166554;29;20052;-83
2023/07/28 21:59:16;;;;;;;0.30;0.25;;;;;;;;;;10163494;29;20507;-82
2023/07/28 22:04:19;;;;;;;0.57;0.10;;;;;;;;;;10164655;29;20075;-83
2023/07/28 22:09:24;;;;;;;1.95;0.20;;;;;;;;;;10164419;29;20080;-83
2023/07/28 22:14:28;;;;;;;3.13;0.20;;;;;;;;;;10163614;29;20044;-83
2023/07/28 22:19:32;;;;;;;2.10;0.22;;;;;;;;;;10167073;29;20411;-83
2023/07/28 22:24:37;;;;;;;0.20;0.20;;;;;;;;;;10170022;29;20556;-83
2023/07/28 22:29:40;;;;;;;0.98;0.20;;;;;;;;;;10170722;29;20504;-82
2023/07/28 22:34:43;;;;;;;0.30;0.20;;;;;;;;;;10182718;29;20558;-83
2023/07/28 22:39:48;;;;;;;0.88;0.20;;;;;;;;;;10166046;29;20068;-83
2023/07/28 22:44:51;;;;;;;0.98;0.20;;;;;;;;;;10163642;29;20084;-83
2023/07/28 22:49:54;;;;;;;0.20;0.20;;;;;;;;;;10163487;29;20081;-84
2023/07/28 22:54:59;;;;;;;0.93;0.20;;;;;;;;;;10161010;29;20072;-83
2023/07/28 23:00:13;;;;;;;1.10;0.20;;;;;;;;;;10164127;29;20044;-83
2023/07/28 23:05:16;;;;;;;0.38;0.22;;;;;;;;;;10163637;29;20060;-83
2023/07/28 23:10:21;;;;;;;0.10;0.10;;;;;;;;;;10164105;29;20070;-83
2023/07/28 23:15:24;;;;;;;0.20;0.20;;;;;;;;;;10159262;29;20084;-83
2023/07/28 23:20:28;;;;;;;0.10;0.10;;;;;;;;;;10163510;29;20066;-83
2023/07/28 23:25:33;;;;;;;0.10;0.10;;;;;;;;;;10163972;29;20048;-83
2023/07/28 23:30:36;;;;;;;1.13;0.22;;;;;;;;;;10164765;29;20624;-82
2023/07/28 23:35:39;;;;;;;0.20;0.20;;;;;;;;;;10164126;29;20064;-83
2023/07/28 23:40:44;;;;;;;1.33;0.20;;;;;;;;;;10157104;29;20076;-84
2023/07/28 23:45:47;;;;;;;0.65;0.20;;;;;;;;;;10160599;29;20083;-83
2023/07/28 23:50:51;;;;;;;0.60;0.25;;;;;;;;;;10166187;29;20063;-82
2023/07/28 23:55:55;;;;;;;0.30;0.20;;;;;;;;;;10155676;29;20174;-82
